createdAt,value
2022-09-26T00:02:21.026Z,97330.00
2022-09-26T00:06:22.494Z,97331.00
2022-09-26T00:10:23.625Z,97336.00
2022-09-26T00:14:27.449Z,97335.00
2022-09-26T00:18:28.651Z,97331.00
2022-09-26T00:22:29.866Z,97327.00
2022-09-26T00:26:32.987Z,97324.00
2022-09-26T00:30:36.421Z,97309.00
2022-09-26T00:34:37.885Z,97312.00
2022-09-26T00:38:40.036Z,97306.00
2022-09-26T00:42:41.133Z,97305.00
2022-09-26T00:46:46.011Z,97301.00
2022-09-26T00:50:47.708Z,97294.00
2022-09-26T00:54:51.816Z,97290.00
2022-09-26T00:58:56.714Z,97285.00
2022-09-26T01:02:58.140Z,97275.00
2022-09-26T01:07:02.640Z,97274.00
2022-09-26T01:11:04.394Z,97268.00
2022-09-26T01:15:08.643Z,97266.00
2022-09-26T01:19:16.662Z,97260.00
2022-09-26T01:23:24.583Z,97247.00
2022-09-26T01:27:41.357Z,97237.00
2022-09-26T01:31:51.329Z,97241.00
2022-09-26T01:36:08.510Z,97241.00
2022-09-26T01:40:16.552Z,97235.00
2022-09-26T01:44:27.336Z,97240.00
2022-09-26T01:48:35.638Z,97233.00
2022-09-26T01:52:49.873Z,97230.00
2022-09-26T01:56:55.272Z,97225.00
2022-09-26T02:01:00.420Z,97214.00
2022-09-26T02:05:08.667Z,97204.00
2022-09-26T02:09:13.570Z,97201.00
2022-09-26T02:13:18.406Z,97206.00
2022-09-26T02:17:26.236Z,97197.00
2022-09-26T02:21:27.926Z,97190.00
2022-09-26T02:25:29.801Z,97188.00
2022-09-26T02:29:31.864Z,97184.00
2022-09-26T02:33:33.262Z,97092.00
2022-09-26T02:37:34.541Z,97159.00
2022-09-26T02:41:55.892Z,97155.00
2022-09-26T02:46:06.849Z,97146.00
2022-09-26T02:50:20.188Z,97145.00
2022-09-26T02:54:25.090Z,97161.00
2022-09-26T02:58:36.059Z,97148.00
2022-09-26T03:03:07.946Z,97138.00
2022-09-26T03:07:12.714Z,97136.00
2022-09-26T03:11:18.569Z,97127.00
2022-09-26T03:15:21.480Z,97126.00
2022-09-26T03:19:30.250Z,97119.00
2022-09-26T03:23:31.812Z,97110.00
2022-09-26T03:27:36.265Z,97107.00
2022-09-26T03:31:37.352Z,97101.00
2022-09-26T03:35:38.397Z,97097.00
2022-09-26T03:39:39.464Z,97097.00
2022-09-26T03:43:42.414Z,97089.00
2022-09-26T03:47:43.275Z,97083.00
2022-09-26T03:51:45.130Z,97077.00
2022-09-26T03:55:46.285Z,97066.00
2022-09-26T03:59:47.298Z,97064.00
2022-09-26T04:03:50.855Z,97044.00
2022-09-26T04:07:52.334Z,97047.00
2022-09-26T04:11:53.611Z,97039.00
2022-09-26T04:15:57.211Z,97038.00
2022-09-26T04:19:58.826Z,97037.00
2022-09-26T04:24:00.067Z,97020.00
2022-09-26T04:28:01.211Z,97018.00
2022-09-26T04:32:02.387Z,97009.00
2022-09-26T04:36:06.671Z,97008.00
2022-09-26T04:40:09.858Z,97006.00
2022-09-26T04:44:12.080Z,97006.00
2022-09-26T04:48:12.921Z,97004.00
2022-09-26T04:52:14.471Z,96990.00
2022-09-26T04:56:16.803Z,96983.00
2022-09-26T05:00:18.044Z,96987.00
2022-09-26T05:04:22.777Z,96983.00
2022-09-26T05:08:23.111Z,96966.00
2022-09-26T05:12:24.113Z,96965.00
2022-09-26T05:16:27.157Z,96969.00
2022-09-26T05:20:31.139Z,96967.00
2022-09-26T05:24:50.589Z,96966.00
2022-09-26T05:28:56.859Z,96967.00
2022-09-26T05:32:58.008Z,96959.00
2022-09-26T05:36:59.534Z,96953.00
2022-09-26T05:41:00.796Z,96953.00
2022-09-26T05:45:02.813Z,96947.00
2022-09-26T05:49:03.864Z,96951.00
2022-09-26T05:53:04.993Z,96954.00
2022-09-26T05:57:06.129Z,96954.00
2022-09-26T06:01:09.825Z,96949.00
2022-09-26T06:05:11.868Z,96880.00
2022-09-26T06:09:13.127Z,96943.00
2022-09-26T06:13:14.785Z,96933.00
2022-09-26T06:17:15.993Z,96929.00
2022-09-26T06:21:18.443Z,96934.00
2022-09-26T06:25:19.633Z,96934.00
2022-09-26T06:29:20.807Z,96930.00
2022-09-26T06:33:22.541Z,96921.00
2022-09-26T06:37:23.802Z,96923.00
2022-09-26T06:41:25.981Z,96919.00
2022-09-26T06:45:27.074Z,96918.00
2022-09-26T06:49:28.261Z,96909.00
2022-09-26T06:53:30.354Z,96901.00
2022-09-26T06:57:39.220Z,96904.00
2022-09-26T07:01:41.157Z,96907.00
2022-09-26T07:05:44.221Z,96904.00
2022-09-26T07:09:45.351Z,96903.00
2022-09-26T07:13:46.602Z,96901.00
2022-09-26T07:17:48.116Z,96902.00
2022-09-26T07:21:49.358Z,96897.00
2022-09-26T07:25:51.497Z,96894.00
2022-09-26T07:29:52.838Z,96889.00
2022-09-26T07:33:54.230Z,96885.00
2022-09-26T07:37:55.512Z,96870.00
2022-09-26T07:41:56.740Z,96867.00
2022-09-26T07:46:16.136Z,96869.00
2022-09-26T07:50:17.971Z,96866.00
2022-09-26T07:54:19.607Z,96859.00
2022-09-26T07:58:22.521Z,96863.00
2022-09-26T08:02:28.646Z,96859.00
2022-09-26T08:06:34.406Z,96872.00
2022-09-26T08:10:35.541Z,96855.00
2022-09-26T08:14:37.015Z,96857.00
2022-09-26T08:18:38.507Z,96841.00
2022-09-26T08:22:39.990Z,96851.00
2022-09-26T08:26:44.407Z,96852.00
2022-09-26T08:30:44.599Z,96847.00
2022-09-26T08:34:48.451Z,96843.00
2022-09-26T08:38:49.877Z,96833.00
2022-09-26T08:43:06.843Z,96848.00
2022-09-26T08:47:34.813Z,96848.00
2022-09-26T08:51:42.112Z,96837.00
2022-09-26T08:55:46.022Z,96843.00
2022-09-26T08:59:49.562Z,96843.00
2022-09-26T09:04:09.795Z,96838.00
2022-09-26T09:08:15.164Z,96830.00
2022-09-26T09:12:32.563Z,96829.00
2022-09-26T09:16:52.703Z,96822.00
2022-09-26T09:21:15.785Z,96826.00
2022-09-26T09:25:30.520Z,96826.00
2022-09-26T09:29:58.107Z,96827.00
2022-09-26T09:34:05.590Z,96815.00
2022-09-26T09:38:10.573Z,96803.00
2022-09-26T09:42:42.989Z,96795.00
2022-09-26T09:46:44.595Z,96790.00
2022-09-26T09:51:22.912Z,96791.00
2022-09-26T09:55:51.902Z,96780.00
2022-09-26T09:59:56.901Z,96776.00
2022-09-26T10:04:23.034Z,96774.00
2022-09-26T10:08:36.608Z,96771.00
2022-09-26T10:12:42.978Z,96763.00
2022-09-26T10:17:10.697Z,96763.00
2022-09-26T10:21:15.656Z,96760.00
2022-09-26T10:25:20.056Z,96750.00
2022-09-26T10:29:36.295Z,96760.00
2022-09-26T10:33:41.759Z,96759.00
2022-09-26T10:37:42.704Z,96757.00
2022-09-26T10:41:45.614Z,96759.00
2022-09-26T10:45:55.557Z,96750.00
2022-09-26T10:50:09.878Z,96747.00
2022-09-26T10:54:14.429Z,96756.00
2022-09-26T10:58:23.626Z,96744.00
2022-09-26T11:02:27.116Z,96749.00
2022-09-26T11:06:38.451Z,96755.00
2022-09-26T11:10:41.443Z,96757.00
2022-09-26T11:14:45.949Z,96748.00
2022-09-26T11:19:03.211Z,96750.00
2022-09-26T11:23:14.646Z,96736.00
2022-09-26T11:27:34.397Z,96734.00
2022-09-26T11:31:43.520Z,96739.00
2022-09-26T11:41:06.705Z,96721.00
2022-09-26T11:45:11.928Z,96728.00
2022-09-26T11:49:34.914Z,96714.00
2022-09-26T11:53:44.777Z,96719.00
2022-09-26T11:57:53.527Z,96721.00
2022-09-26T12:02:17.284Z,96701.00
2022-09-26T12:06:25.300Z,96705.00
2022-09-26T12:10:49.048Z,96706.00
2022-09-26T12:15:03.193Z,96700.00
2022-09-26T12:19:26.524Z,96686.00
2022-09-26T12:23:49.898Z,96693.00
2022-09-26T12:27:58.566Z,96672.00
2022-09-26T12:32:14.559Z,96673.00
2022-09-26T12:36:39.842Z,96667.00
2022-09-26T12:40:53.818Z,96661.00
2022-09-26T12:44:58.639Z,96653.00
2022-09-26T12:49:07.049Z,96647.00
2022-09-26T12:53:27.019Z,96654.00
2022-09-26T12:57:36.818Z,96647.00
2022-09-26T13:02:11.865Z,96630.00
2022-09-26T13:06:25.097Z,96625.00
2022-09-26T13:10:39.143Z,96615.00
2022-09-26T13:14:54.668Z,96612.00
2022-09-26T13:19:06.589Z,96609.00
2022-09-26T13:23:28.427Z,96603.00
2022-09-26T13:27:35.337Z,96594.00
2022-09-26T13:31:50.607Z,96587.00
2022-09-26T13:35:55.936Z,96576.00
2022-09-26T13:40:10.105Z,96571.00
2022-09-26T13:44:37.902Z,96570.00
2022-09-26T13:48:50.889Z,96559.00
2022-09-26T13:53:00.796Z,96551.00
2022-09-26T13:57:06.976Z,96556.00
2022-09-26T14:01:24.502Z,96554.00
2022-09-26T14:05:33.250Z,96536.00
2022-09-26T14:09:41.884Z,96525.00
2022-09-26T14:13:43.867Z,96515.00
2022-09-26T14:17:48.818Z,96512.00
2022-09-26T14:22:02.614Z,96499.00
2022-09-26T14:26:07.901Z,96491.00
2022-09-26T14:30:29.631Z,96486.00
2022-09-26T14:34:54.876Z,96485.00
2022-09-26T14:38:56.617Z,96459.00
2022-09-26T14:43:16.759Z,96460.00
2022-09-26T14:47:19.207Z,96454.00
2022-09-26T14:51:30.816Z,96445.00
2022-09-26T14:55:32.700Z,96440.00
2022-09-26T14:59:39.272Z,96423.00
2022-09-26T15:03:40.858Z,96425.00
2022-09-26T15:07:45.859Z,96415.00
2022-09-26T15:11:56.849Z,96411.00
2022-09-26T15:16:25.802Z,96396.00
2022-09-26T15:20:29.802Z,96398.00
2022-09-26T15:24:36.149Z,96389.00
2022-09-26T15:28:38.190Z,96386.00
2022-09-26T15:32:39.742Z,96388.00
2022-09-26T15:36:42.364Z,96386.00
2022-09-26T15:40:45.735Z,96370.00
2022-09-26T15:44:51.028Z,96372.00
2022-09-26T15:48:52.543Z,96378.00
2022-09-26T15:53:03.799Z,96365.00
2022-09-26T15:57:07.464Z,96363.00
2022-09-26T16:01:11.253Z,96359.00
2022-09-26T16:05:14.787Z,96362.00
2022-09-26T16:09:20.268Z,96349.00
2022-09-26T16:13:25.292Z,96335.00
2022-09-26T16:17:36.424Z,96340.00
2022-09-26T16:21:39.626Z,96332.00
2022-09-26T16:25:50.557Z,96330.00
2022-09-26T16:29:52.852Z,96318.00
2022-09-26T16:33:56.278Z,96316.00
2022-09-26T16:38:00.015Z,96320.00
2022-09-26T16:42:09.090Z,96308.00
2022-09-26T16:46:17.130Z,96313.00
2022-09-26T16:50:27.557Z,96312.00
2022-09-26T16:54:30.203Z,96299.00
2022-09-26T16:58:32.307Z,96296.00
2022-09-26T17:02:34.784Z,96300.00
2022-09-26T17:06:36.979Z,96293.00
2022-09-26T17:10:41.256Z,96302.00
2022-09-26T17:14:46.610Z,96290.00
2022-09-26T17:18:47.869Z,96284.00
2022-09-26T17:22:49.903Z,96285.00
2022-09-26T17:26:59.936Z,96277.00
2022-09-26T17:31:03.173Z,96272.00
2022-09-26T17:35:15.979Z,96268.00
2022-09-26T17:39:20.476Z,96261.00
2022-09-26T17:43:23.011Z,96254.00
2022-09-26T17:47:24.337Z,96263.00
2022-09-26T17:51:25.591Z,96260.00
2022-09-26T17:55:29.127Z,96258.00
2022-09-26T17:59:31.174Z,96253.00
2022-09-26T18:03:35.551Z,96260.00
2022-09-26T18:07:40.460Z,96265.00
2022-09-26T18:11:44.944Z,96250.00
2022-09-26T18:15:46.549Z,96253.00
2022-09-26T18:19:48.778Z,96253.00
2022-09-26T18:24:00.261Z,96246.00
2022-09-26T18:28:05.370Z,96238.00
2022-09-26T18:32:11.024Z,96238.00
2022-09-26T18:36:12.116Z,96228.00
2022-09-26T18:40:17.057Z,96231.00
2022-09-26T18:44:19.555Z,96227.00
2022-09-26T18:48:32.321Z,96223.00
2022-09-26T18:52:34.237Z,96220.00
2022-09-26T18:56:53.873Z,96222.00
2022-09-26T19:01:05.108Z,96215.00
2022-09-26T19:05:09.026Z,96203.00
2022-09-26T19:09:16.215Z,96201.00
2022-09-26T19:13:17.563Z,96205.00
2022-09-26T19:17:19.031Z,96194.00
2022-09-26T19:21:32.575Z,96187.00
2022-09-26T19:25:33.766Z,96186.00
2022-09-26T19:29:44.425Z,96177.00
2022-09-26T19:33:49.337Z,96164.00
2022-09-26T19:37:50.544Z,96162.00
2022-09-26T19:41:51.919Z,96149.00
2022-09-26T19:45:54.818Z,96147.00
2022-09-26T19:49:56.896Z,96136.00
2022-09-26T19:54:03.889Z,96130.00
2022-09-26T19:58:09.376Z,96129.00
2022-09-26T20:02:18.150Z,96116.00
2022-09-26T20:06:22.917Z,96116.00
2022-09-26T20:10:24.544Z,96115.00
2022-09-26T20:14:25.645Z,96106.00
2022-09-26T20:18:26.860Z,96100.00
2022-09-26T20:22:27.960Z,96096.00
2022-09-26T20:26:31.959Z,96093.00
2022-09-26T20:30:50.961Z,96080.00
2022-09-26T20:34:52.006Z,96075.00
2022-09-26T20:38:56.250Z,96067.00
2022-09-26T20:43:03.985Z,96060.00
2022-09-26T20:47:05.905Z,96056.00
2022-09-26T20:51:10.803Z,96039.00
2022-09-26T20:55:17.402Z,96026.00
2022-09-26T20:59:19.512Z,96032.00
2022-09-26T21:03:23.300Z,96034.00
2022-09-26T21:07:24.635Z,96025.00
2022-09-26T21:11:25.901Z,96019.00
2022-09-26T21:15:29.700Z,96021.00
2022-09-26T21:19:32.035Z,96010.00
2022-09-26T21:23:42.022Z,95999.00
2022-09-26T21:27:45.010Z,95986.00
2022-09-26T21:31:49.732Z,96000.00
2022-09-26T21:35:52.751Z,95996.00
2022-09-26T21:39:54.269Z,95990.00
2022-09-26T21:44:05.677Z,95986.00
2022-09-26T21:48:06.768Z,95975.00
2022-09-26T21:52:23.883Z,95966.00
2022-09-26T21:56:28.678Z,95971.00
2022-09-26T22:00:29.985Z,95961.00
2022-09-26T22:04:31.462Z,95972.00
2022-09-26T22:08:32.440Z,95951.00
2022-09-26T22:12:33.895Z,95948.00
2022-09-26T22:16:35.285Z,95946.00
2022-09-26T22:20:36.473Z,95938.00
2022-09-26T22:24:37.744Z,95929.00
2022-09-26T22:28:39.298Z,95928.00
2022-09-26T22:32:40.376Z,95922.00
2022-09-26T22:36:41.764Z,95911.00
2022-09-26T22:40:43.043Z,95915.00
2022-09-26T22:44:44.246Z,95914.00
2022-09-26T22:48:46.380Z,95909.00
2022-09-26T22:52:47.872Z,95908.00
2022-09-26T22:56:49.127Z,95906.00
2022-09-26T23:00:50.476Z,95905.00
2022-09-26T23:04:51.562Z,95901.00
2022-09-26T23:08:53.637Z,95899.00
2022-09-26T23:12:54.941Z,95892.00
2022-09-26T23:16:56.019Z,95886.00
2022-09-26T23:20:57.078Z,95887.00
2022-09-26T23:24:58.551Z,95882.00
2022-09-26T23:28:59.838Z,95870.00
2022-09-26T23:33:01.690Z,95870.00
2022-09-26T23:37:02.709Z,95860.00
2022-09-26T23:41:05.672Z,95861.00
2022-09-26T23:45:07.510Z,95857.00
2022-09-26T23:49:08.567Z,95874.00
2022-09-26T23:53:09.750Z,95863.00
2022-09-26T23:57:10.747Z,95853.00
